Kimberly Turecamo — WDC6838 — position and weather

sailwx.info

Track history (hours):
 
Tides and Currents Weather Stations Pressure Air Temp Water Temp Dewpoint Dewpoint Depression Visibility Wind Speed Wind Dir Waves Ship Positions

Kimberly Turecamo

Owner: Moran Towing Corporation, New Canaan, CT. More information available from US FCC via Universal Licensing System and Coast Guard Vessel Documentation Center.

Last reported at 2017-May-26 05:30 UTC. Time now 2017-May-26 05:49 UTC.
Position N 40°38' W 074°08'.

Length 31 m; draft 5 m.

Type: . MMSI: 367061980.

Date/timePositionNaut miles runAvg speedWind from/ knotsBaromVisibWave heightAir tempDewpointWater temp
2017-May-26 05:30N 40°38' W 074°08'0 0.0
2017-May-26 05:00N 40°38' W 074°08'0 0.0
2017-May-26 04:30N 40°38' W 074°08'0 0.0
2017-May-26 04:00N 40°38' W 074°08'0 0.0
2017-May-26 03:30N 40°38' W 074°08'0 0.0
2017-May-26 03:00N 40°38' W 074°08'0 0.0
2017-May-26 02:30N 40°38' W 074°08'0 0.0
2017-May-26 02:00N 40°38' W 074°08'0 0.0
2017-May-26 01:30N 40°38' W 074°08'0 0.0
2017-May-26 00:59N 40°38' W 074°08'0 0.0
2017-May-26 00:30N 40°38' W 074°08'0 0.0
2017-May-26 00:00N 40°38' W 074°08'0 0.0
2017-May-25 23:30N 40°38' W 074°08'0 0.0
2017-May-25 23:00N 40°38' W 074°08'0 0.0
2017-May-25 22:30N 40°38' W 074°08'0 0.0
2017-May-25 22:00N 40°38' W 074°08'0 0.0
2017-May-25 21:30N 40°38' W 074°08'0 0.0
2017-May-25 21:00N 40°38' W 074°08'0 0.0
2017-May-25 20:30N 40°38' W 074°08'0 0.0
2017-May-25 20:00N 40°38' W 074°08'0 0.0
2017-May-25 19:30N 40°38' W 074°08'0 0.0
2017-May-25 19:00N 40°38' W 074°08'0 0.0
2017-May-25 18:30N 40°38' W 074°08'0 0.0
2017-May-25 18:00N 40°38' W 074°08'0 0.0
2017-May-25 17:30N 40°38' W 074°08'0 0.0
2017-May-25 17:00N 40°38' W 074°08'0 0.0
2017-May-25 16:30N 40°38' W 074°08'0 0.0
2017-May-25 15:59N 40°38' W 074°08'0 0.0
2017-May-25 15:30N 40°38' W 074°08'0 0.0
2017-May-25 15:00N 40°38' W 074°08'0 0.0
2017-May-25 14:00N 40°38' W 074°08'0 0.0
2017-May-25 13:30N 40°38' W 074°08'0 0.0
2017-May-25 13:00N 40°38' W 074°08'0 0.0
2017-May-25 12:30N 40°38' W 074°08'0 0.0
2017-May-25 12:00N 40°38' W 074°08'0 0.0
2017-May-25 11:30N 40°38' W 074°08'0 0.0
2017-May-25 11:00N 40°38' W 074°08'0 0.0
2017-May-25 10:30N 40°38' W 074°08'0 0.0
2017-May-25 10:00N 40°38' W 074°08'0 0.0
2017-May-25 09:30N 40°38' W 074°08'0 0.0
2017-May-25 09:00N 40°38' W 074°08'0 0.0
2017-May-25 08:30N 40°38' W 074°08'0 0.0
2017-May-25 08:00N 40°38' W 074°08'0 0.0
2017-May-25 07:30N 40°38' W 074°08'0 0.0
2017-May-25 07:00N 40°38' W 074°08'0 0.0
2017-May-25 06:30N 40°38' W 074°08'0 0.0
2017-May-25 06:00N 40°38' W 074°08'0 0.0
2017-May-25 05:30N 40°38' W 074°08'0 0.0
2017-May-25 05:00N 40°38' W 074°08'1 2.1
2017-May-25 04:30N 40°39' W 074°06'3 7.0
2017-May-25 04:00N 40°40' W 074°02'1 1.1
2017-May-25 03:30N 40°40' W 074°03'5 9.7
2017-May-25 03:00N 40°38' W 074°09'2 4.7
2017-May-25 02:29N 40°38' W 074°12'2 3.4
2017-May-25 02:00N 40°39' W 074°10'2 4.0
2017-May-25 01:30N 40°38' W 074°08'0 0.0
2017-May-25 00:57N 40°38' W 074°08'0 0.0
2017-May-25 00:30N 40°38' W 074°08'0 0.0
2017-May-24 23:57N 40°38' W 074°08'0 0.0
2017-May-24 23:27N 40°38' W 074°08'0 0.0
2017-May-24 23:00N 40°38' W 074°08'0 0.0
2017-May-24 22:30N 40°38' W 074°08'0 0.0
2017-May-24 21:57N 40°38' W 074°08'0 0.0
2017-May-24 21:24N 40°38' W 074°08'0 0.0
2017-May-24 20:54N 40°38' W 074°08'0 0.0
2017-May-24 20:27N 40°38' W 074°08'0 0.0
2017-May-24 19:45N 40°38' W 074°08'0 0.0
2017-May-24 19:24N 40°38' W 074°08'0 0.0
2017-May-24 18:57N 40°38' W 074°08'0 0.0
2017-May-24 18:30N 40°38' W 074°08'0 0.0
2017-May-24 17:57N 40°38' W 074°08'0 0.0
2017-May-24 17:30N 40°38' W 074°08'0 0.0
2017-May-24 16:57N 40°38' W 074°08'0 0.0
2017-May-24 16:27N 40°38' W 074°08'0 0.0
2017-May-24 16:00N 40°38' W 074°08'0 0.1
2017-May-24 15:30N 40°38' W 074°08'0 0.0
2017-May-24 15:00N 40°38' W 074°08'0 0.0
2017-May-24 14:30N 40°38' W 074°08'0 0.0
2017-May-24 13:24N 40°38' W 074°08'2 4.7
2017-May-24 13:00N 40°39' W 074°10'2 3.3
2017-May-24 12:30N 40°38' W 074°12'0 0.0
2017-May-24 12:00N 40°38' W 074°12'2 3.4
2017-May-24 11:30N 40°39' W 074°10'4 7.4
2017-May-24 11:00N 40°39' W 074°05'2 4.2
2017-May-24 10:30N 40°38' W 074°03'1 1.6
2017-May-24 10:00N 40°37' W 074°03'0 0.0
2017-May-24 09:30N 40°37' W 074°03'0 0.0
2017-May-24 09:00N 40°37' W 074°03'0 0.0
2017-May-24 08:30N 40°37' W 074°03'0 0.3
2017-May-24 08:00N 40°37' W 074°03'0 0.2
2017-May-24 07:30N 40°37' W 074°03'0 0.1
2017-May-24 07:00N 40°37' W 074°03'0 0.1
2017-May-24 06:30N 40°37' W 074°03'0 0.1
2017-May-24 06:00N 40°37' W 074°03'0 0.1
2017-May-24 05:30N 40°37' W 074°03'0 0.1
2017-May-24 05:00N 40°37' W 074°03'0 0.1
2017-May-24 04:30N 40°37' W 074°03'0 0.1
2017-May-24 03:57N 40°37' W 074°03'0 0.0
2017-May-24 03:30N 40°37' W 074°03'0 0.0
2017-May-24 02:59N 40°37' W 074°03'0 0.0
2017-May-24 02:29N 40°37' W 074°03'0 0.0
2017-May-24 01:50N 40°37' W 074°03'0 0.1
2017-May-24 01:29N 40°37' W 074°03'0 0.4
2017-May-24 00:59N 40°37' W 074°03'0 0.1
2017-May-24 00:29N 40°37' W 074°03'0 0.0
2017-May-23 23:59N 40°37' W 074°03'0 0.0
2017-May-23 23:29N 40°37' W 074°03'0 0.0
2017-May-23 22:59N 40°37' W 074°03'0 0.0
2017-May-23 22:30N 40°37' W 074°03'0 0.9
2017-May-23 22:01N 40°37' W 074°04'3 6.2
2017-May-23 21:31N 40°40' W 074°02'0 0.1
2017-May-23 21:01N 40°40' W 074°02'0 0.1
2017-May-23 20:31N 40°40' W 074°02'5 9.2
2017-May-23 20:00N 40°38' W 074°08'0 0.0
2017-May-23 19:30N 40°38' W 074°08'0 0.0
2017-May-23 19:01N 40°38' W 074°08'0 0.0
2017-May-23 18:31N 40°38' W 074°08'0 0.0
2017-May-23 18:01N 40°38' W 074°08'0 0.0
2017-May-23 17:30N 40°38' W 074°08'0 0.0
2017-May-23 17:00N 40°38' W 074°08'0 0.0
2017-May-23 16:30N 40°38' W 074°08'0 0.0
2017-May-23 16:01N 40°38' W 074°08'0 0.0
2017-May-23 15:30N 40°38' W 074°08'0 0.0
2017-May-23 15:01N 40°38' W 074°08'0 0.0
2017-May-23 14:30N 40°38' W 074°08'0 0.0
2017-May-23 13:30N 40°38' W 074°08'0 0.0
2017-May-23 13:01N 40°38' W 074°08'0 0.0
2017-May-23 12:31N 40°38' W 074°08'0 0.0
2017-May-23 12:00N 40°38' W 074°08'0 0.0
2017-May-23 11:30N 40°38' W 074°08'0 0.0
2017-May-23 11:00N 40°38' W 074°08'0 0.0
2017-May-23 10:31N 40°38' W 074°08'2 4.8
2017-May-23 10:00N 40°39' W 074°11'1 2.7
2017-May-23 09:30N 40°38' W 074°12'3 7.0
2017-May-23 09:00N 40°38' W 074°08'0 0.0
2017-May-23 08:31N 40°38' W 074°08'0 0.0
2017-May-23 08:00N 40°38' W 074°08'0 0.0
2017-May-23 07:30N 40°38' W 074°08'0 0.0
2017-May-23 07:00N 40°38' W 074°08'0 0.0
2017-May-23 06:31N 40°38' W 074°08'0 0.0
2017-May-23 06:00N 40°38' W 074°08'0 0.0
2017-May-23 05:30N 40°38' W 074°08'0 0.0
2017-May-23 05:01N 40°38' W 074°08'0 0.0
2017-May-23 04:30N 40°38' W 074°08'0 0.0
2017-May-23 04:00N 40°38' W 074°08'0 0.0
2017-May-23 03:30N 40°38' W 074°08'0 0.0
2017-May-23 03:01N 40°38' W 074°08'0 0.0
2017-May-23 02:30N 40°38' W 074°08'2 4.7
2017-May-23 02:01N 40°41' W 074°09'0 0.9
2017-May-23 01:31N 40°41' W 074°08'2 3.4
2017-May-23 01:00N 40°39' W 074°09'2 4.0
2017-May-23 00:30N 40°39' W 074°06'3 5.3
2017-May-23 00:01N 40°40' W 074°03'1 2.7
2017-May-22 23:31N 40°41' W 074°04'0 0.6
2017-May-22 23:00N 40°41' W 074°04'4 6.7
2017-May-22 22:29N 40°39' W 074°08'0 0.3
2017-May-22 21:58N 40°38' W 074°08'0 0.0
2017-May-22 21:28N 40°38' W 074°08'0 0.0
2017-May-22 20:55N 40°38' W 074°08'0 0.0
2017-May-22 20:16N 40°38' W 074°08'0 0.0
2017-May-22 18:58N 40°38' W 074°08'0 0.0
2017-May-22 16:13N 40°38' W 074°08'1 1.3
2017-May-22 15:12N 40°39' W 074°06'0 0.2
2017-May-22 15:00N 40°39' W 074°06'1 1.2
2017-May-22 13:54N 40°38' W 074°08'0 0.0
2017-May-22 13:30N 40°38' W 074°08'0 0.0
2017-May-22 12:57N 40°38' W 074°08'0 0.0
2017-May-22 12:30N 40°38' W 074°08'4 8.9
2017-May-22 12:00N 40°40' W 074°02'2 3.2
2017-May-22 11:30N 40°41' W 074°01'2 3.5
2017-May-22 11:00N 40°40' W 074°03'4 8.5
2017-May-22 10:30N 40°38' W 074°08'0 0.0
2017-May-22 10:00N 40°38' W 074°08'0 0.0
2017-May-22 09:30N 40°38' W 074°08'0 0.0
2017-May-22 09:00N 40°38' W 074°08'0 0.0
2017-May-22 08:30N 40°38' W 074°08'0 0.0
2017-May-22 08:00N 40°38' W 074°08'0 0.0
2017-May-22 07:30N 40°38' W 074°08'0 0.0
2017-May-22 07:00N 40°38' W 074°08'0 0.0
2017-May-22 06:30N 40°38' W 074°08'0 0.0
2017-May-22 06:00N 40°38' W 074°08'0 0.0
2017-May-22 05:30N 40°38' W 074°08'0 0.0
2017-May-22 05:00N 40°38' W 074°08'0 0.0
2017-May-22 04:30N 40°38' W 074°08'0 0.0
2017-May-22 04:00N 40°38' W 074°08'0 0.0
2017-May-22 03:30N 40°38' W 074°08'0 0.0
2017-May-22 03:00N 40°38' W 074°08'0 0.0
2017-May-22 02:30N 40°38' W 074°08'0 0.0
2017-May-22 02:00N 40°38' W 074°08'0 0.0
2017-May-22 01:30N 40°38' W 074°08'0 0.0
2017-May-22 01:00N 40°38' W 074°08'0 0.0
2017-May-22 00:30N 40°38' W 074°08'0 0.0
2017-May-22 00:00N 40°38' W 074°08'0 0.0
2017-May-21 23:30N 40°38' W 074°08'0 0.0
2017-May-21 23:00N 40°38' W 074°08'0 0.0
2017-May-21 22:30N 40°38' W 074°08'0 0.0
2017-May-21 22:00N 40°38' W 074°08'0 0.0
2017-May-21 21:30N 40°38' W 074°08'0 0.0
2017-May-21 21:00N 40°38' W 074°08'0 0.0
2017-May-21 20:30N 40°38' W 074°08'0 0.0
2017-May-21 20:00N 40°38' W 074°08'0 0.0
2017-May-21 19:30N 40°38' W 074°08'0 0.0
2017-May-21 19:00N 40°38' W 074°08'0 0.0
2017-May-21 18:30N 40°38' W 074°08'0 0.0
2017-May-21 18:00N 40°38' W 074°08'0 0.0
2017-May-21 17:30N 40°38' W 074°08'0 0.0
2017-May-21 17:00N 40°38' W 074°08'0 0.0
2017-May-21 16:30N 40°38' W 074°08'0 0.0
2017-May-21 16:00N 40°38' W 074°08'0 0.0
2017-May-21 15:30N 40°38' W 074°08'0 0.0
2017-May-21 15:00N 40°38' W 074°08'0 0.0
2017-May-21 14:00N 40°38' W 074°08'0 0.0
2017-May-21 13:30N 40°38' W 074°08'0 0.0
2017-May-21 13:00N 40°38' W 074°08'0 0.0
2017-May-21 12:30N 40°38' W 074°08'0 0.0
2017-May-21 12:00N 40°38' W 074°08'0 0.0
2017-May-21 11:30N 40°38' W 074°08'0 0.0
2017-May-21 11:00N 40°38' W 074°08'0 0.0
2017-May-21 10:30N 40°38' W 074°08'0 0.0
2017-May-21 10:00N 40°38' W 074°08'0 0.0
2017-May-21 09:30N 40°38' W 074°08'0 0.0
2017-May-21 09:00N 40°38' W 074°08'0 0.0
2017-May-21 08:30N 40°38' W 074°08'0 0.0
2017-May-21 08:00N 40°38' W 074°08'0 0.0
2017-May-21 07:30N 40°38' W 074°08'0 0.0
2017-May-21 07:00N 40°38' W 074°08'0 0.0
2017-May-21 06:30N 40°38' W 074°08'0 0.0
2017-May-21 06:00N 40°38' W 074°08'0 0.0
2017-May-21 05:30N 40°38' W 074°08'0 0.0
2017-May-21 05:00N 40°38' W 074°08'0 0.0
2017-May-21 04:30N 40°38' W 074°08'0 0.0
2017-May-21 04:00N 40°38' W 074°08'0 0.0
2017-May-21 03:30N 40°38' W 074°08'0 0.0
2017-May-21 03:00N 40°38' W 074°08'0 0.0
2017-May-21 02:30N 40°38' W 074°08'0 0.0
2017-May-21 02:00N 40°38' W 074°08'0 0.0
2017-May-21 01:30N 40°38' W 074°08'0 0.0
2017-May-21 01:00N 40°38' W 074°08'0 0.0
2017-May-21 00:30N 40°38' W 074°08'0 0.0
2017-May-21 00:00N 40°38' W 074°08'0 0.0
2017-May-20 23:30N 40°38' W 074°08'0 0.0
2017-May-20 23:00N 40°38' W 074°08'0 0.0
2017-May-20 22:30N 40°38' W 074°08'0 0.0
2017-May-20 22:00N 40°38' W 074°08'0 0.0
2017-May-20 21:30N 40°38' W 074°08'1 2.8
2017-May-20 21:00N 40°39' W 074°06'3 6.6
2017-May-20 20:30N 40°40' W 074°02'3 5.5
2017-May-20 20:00N 40°39' W 074°05'0 0.3
2017-May-20 19:30N 40°39' W 074°06'1 2.4
2017-May-20 19:00N 40°39' W 074°07'1 1.2
2017-May-20 18:30N 40°38' W 074°08'0 0.0
2017-May-20 18:00N 40°38' W 074°08'0 0.0
2017-May-20 17:29N 40°38' W 074°08'0 0.0
2017-May-20 17:00N 40°38' W 074°08'0 0.0
2017-May-20 16:30N 40°38' W 074°08'0 0.0
2017-May-20 15:51N 40°38' W 074°08'0 0.0
2017-May-20 15:30N 40°38' W 074°08'0 0.0
2017-May-20 14:58N 40°38' W 074°08'0 0.0
2017-May-20 13:44N 40°38' W 074°08'0 0.0
2017-May-20 13:22N 40°38' W 074°08'0 0.0
2017-May-20 12:59N 40°38' W 074°08'0 0.0
2017-May-20 12:09N 40°38' W 074°08'0 0.0
2017-May-20 11:57N 40°38' W 074°08'0 0.0
2017-May-20 11:20N 40°38' W 074°08'0 0.0
2017-May-20 10:59N 40°38' W 074°08'0 0.0
2017-May-20 10:30N 40°38' W 074°08'0 0.0
2017-May-20 09:40N 40°38' W 074°08'0 0.0
2017-May-20 09:29N 40°38' W 074°08'0 0.0
2017-May-20 08:55N 40°38' W 074°08'0 0.0
2017-May-20 08:30N 40°38' W 074°08'0 0.0
2017-May-20 08:00N 40°38' W 074°08'0 0.0
2017-May-20 07:30N 40°38' W 074°08'0 0.0
2017-May-20 07:00N 40°38' W 074°08'0 0.0
2017-May-20 06:30N 40°38' W 074°08'0 0.0
2017-May-20 06:00N 40°38' W 074°08'0 0.0
2017-May-20 05:30N 40°38' W 074°08'0 0.0
2017-May-20 03:04N 40°38' W 074°08'0 0.2
2017-May-20 03:00N 40°38' W 074°08'2 3.8
2017-May-20 02:30N 40°39' W 074°05'0 0.0
2017-May-20 02:00N 40°39' W 074°05'2 4.0
2017-May-20 01:30N 40°38' W 074°03'2 4.9
2017-May-20 01:00N 40°36' W 074°02'0 0.4
2017-May-20 00:30N 40°36' W 074°02'3 5.4
2017-May-20 00:00N 40°33' W 074°01'34 5.8
2017-May-19 18:13N 39°60' W 073°56'2 7.0
2017-May-19 17:58N 39°58' W 073°56'3 7.0
2017-May-19 17:30N 39°55' W 073°57'4 7.1
2017-May-19 17:00N 39°51' W 073°57'4 7.1
2017-May-19 16:29N 39°47' W 073°58'3 7.1
2017-May-19 16:00N 39°44' W 073°59'3 6.9
2017-May-19 15:30N 39°41' W 073°59'3 6.1
2017-May-19 15:00N 39°38' W 074°00'7 6.6
2017-May-19 14:00N 39°32' W 074°05'3 6.7
2017-May-19 13:30N 39°29' W 074°08'11 6.8
2017-May-19 11:57N 39°21' W 074°16'17 6.8
2017-May-19 09:30N 39°08' W 074°30'4 6.9
2017-May-19 08:56N 39°05' W 074°33'4 6.7
2017-May-19 08:20N 39°03' W 074°37'23 6.0
2017-May-19 04:29N 38°49' W 075°00'9 5.6
2017-May-19 02:55N 38°56' W 075°06'2 4.6
2017-May-19 02:26N 38°58' W 075°08'0 0.6
2017-May-19 02:00N 38°58' W 075°08'4 7.4
2017-May-19 01:28N 39°02' W 075°09'4 8.0
2017-May-19 01:00N 39°05' W 075°11'4 8.3
2017-May-19 00:30N 39°09' W 075°14'4 8.4
2017-May-19 00:00N 39°12' W 075°17'5 8.4
2017-May-18 23:23N 39°16' W 075°21'3 8.3
2017-May-18 23:00N 39°19' W 075°24'4 7.8
2017-May-18 22:30N 39°22' W 075°27'3 6.8
2017-May-18 22:00N 39°24' W 075°30'3 6.5
2017-May-18 21:30N 39°27' W 075°33'3 5.7
2017-May-18 21:00N 39°30' W 075°34'3 5.7
2017-May-18 20:30N 39°32' W 075°33'3 5.5
2017-May-18 20:00N 39°35' W 075°34'3 5.2
2017-May-18 19:30N 39°37' W 075°35'3 5.7
2017-May-18 19:00N 39°40' W 075°32'3 6.5
2017-May-18 18:30N 39°43' W 075°31'4 7.4
2017-May-18 18:00N 39°46' W 075°29'4 8.1
2017-May-18 17:30N 39°49' W 075°24'4 8.9
2017-May-18 17:00N 39°51' W 075°20'4 8.7
2017-May-18 16:30N 39°52' W 075°14'3 4.9
2017-May-18 15:59N 39°54' W 075°12'0 0.0
2017-May-18 15:29N 39°54' W 075°12'0 0.0
2017-May-18 14:59N 39°54' W 075°12'1 1.3
2017-May-18 13:59N 39°53' W 075°11'0 0.0
2017-May-18 13:29N 39°53' W 075°11'0 0.0
2017-May-18 12:59N 39°53' W 075°11'0 0.0
2017-May-18 12:29N 39°53' W 075°11'0 0.0
2017-May-18 11:59N 39°53' W 075°11'0 0.0
2017-May-18 11:29N 39°53' W 075°11'0 0.0
2017-May-18 10:59N 39°53' W 075°11'0 0.0
2017-May-18 10:29N 39°53' W 075°11'0 0.0
2017-May-18 09:59N 39°53' W 075°11'0 0.0
2017-May-18 09:29N 39°53' W 075°11'0 0.0
2017-May-18 08:59N 39°53' W 075°11'0 0.0
2017-May-18 08:29N 39°53' W 075°11'0 0.0
2017-May-18 07:53N 39°53' W 075°11'0 0.0
2017-May-18 07:29N 39°53' W 075°11'0 0.0
2017-May-18 06:59N 39°53' W 075°11'0 0.0
2017-May-18 06:29N 39°53' W 075°11'0 0.0
2017-May-18 05:59N 39°53' W 075°11'0 0.0
2017-May-18 05:29N 39°53' W 075°11'0 0.0
2017-May-18 04:59N 39°53' W 075°11'0 0.0
2017-May-18 04:29N 39°53' W 075°11'0 0.0
2017-May-18 03:59N 39°53' W 075°11'0 0.0
2017-May-18 03:29N 39°53' W 075°11'0 0.0
2017-May-18 02:59N 39°53' W 075°11'0 0.0
2017-May-18 02:30N 39°53' W 075°11'0 0.0
2017-May-18 02:00N 39°53' W 075°11'0 0.0
2017-May-18 01:30N 39°53' W 075°11'0 0.0
2017-May-18 01:00N 39°53' W 075°11'0 0.0
2017-May-18 00:30N 39°53' W 075°11'0 0.0
2017-May-18 00:00N 39°53' W 075°11'0 0.0
2017-May-17 23:30N 39°53' W 075°11'0 0.0
2017-May-17 23:00N 39°53' W 075°11'0 0.0
2017-May-17 22:30N 39°53' W 075°11'0 0.0
2017-May-17 22:00N 39°53' W 075°11'0 0.0
2017-May-17 21:30N 39°53' W 075°11'0 0.0
2017-May-17 21:00N 39°53' W 075°11'1 2.3
2017-May-17 20:30N 39°54' W 075°12'0 0.2
2017-May-17 20:00N 39°54' W 075°12'2 4.2
2017-May-17 19:30N 39°52' W 075°13'3 6.1
2017-May-17 19:00N 39°51' W 075°17'510.0
2017-May-17 18:30N 39°49' W 075°23'5 9.4
2017-May-17 18:00N 39°46' W 075°28'5 9.3
2017-May-17 17:30N 39°42' W 075°31'4 8.9
2017-May-17 17:00N 39°38' W 075°34'4 8.1
2017-May-17 16:30N 39°34' W 075°33'4 8.2
2017-May-17 16:00N 39°30' W 075°33'4 7.0
2017-May-17 15:30N 39°27' W 075°33'4 7.6
2017-May-17 15:00N 39°24' W 075°30'4 7.2
2017-May-17 14:30N 39°21' W 075°27'7 7.2
2017-May-17 13:30N 39°16' W 075°20'4 7.5
2017-May-17 13:00N 39°13' W 075°17'4 7.2
2017-May-17 12:30N 39°10' W 075°15'4 7.9
2017-May-17 12:00N 39°06' W 075°12'4 7.8
2017-May-17 11:30N 39°03' W 075°10'4 7.9
2017-May-17 11:00N 38°59' W 075°08'4 7.7
2017-May-17 10:30N 38°56' W 075°06'4 7.4
2017-May-17 10:00N 38°53' W 075°04'4 7.5
2017-May-17 09:30N 38°49' W 075°02'4 7.4
2017-May-17 09:00N 38°48' W 074°57'4 8.3
2017-May-17 08:30N 38°50' W 074°52'10 8.4
2017-May-17 07:19N 38°57' W 074°43'3 8.7
2017-May-17 07:00N 38°59' W 074°41'4 8.8
2017-May-17 06:31N 39°02' W 074°37'5 9.0
2017-May-17 06:00N 39°05' W 074°33'4 9.0
2017-May-17 05:30N 39°09' W 074°29'5 9.1
2017-May-17 05:00N 39°12' W 074°26'5 9.1
2017-May-17 04:30N 39°16' W 074°22'4 8.8
2017-May-17 04:00N 39°19' W 074°18'5 9.2
2017-May-17 03:30N 39°22' W 074°14'5 9.2
2017-May-17 03:00N 39°26' W 074°11'5 9.2
2017-May-17 02:30N 39°30' W 074°08'5 9.0
2017-May-17 01:59N 39°35' W 074°05'4 8.7
2017-May-17 01:30N 39°38' W 074°03'4 8.6
2017-May-17 01:00N 39°42' W 074°00'4 8.5
2017-May-17 00:29N 39°46' W 073°58'5 8.8
2017-May-16 23:58N 39°51' W 073°58'38 9.1
2017-May-16 19:45N 40°29' W 073°55'310.6
2017-May-16 19:30N 40°30' W 073°58'5 9.5
2017-May-16 19:00N 40°34' W 074°02'4 8.0
2017-May-16 18:30N 40°38' W 074°03'4 7.9
2017-May-16 18:00N 40°41' W 074°01'3 6.8
2017-May-16 17:30N 40°44' W 073°58'3 6.0
2017-May-16 16:59N 40°47' W 073°56'3 5.7
2017-May-16 16:30N 40°48' W 073°53'4 7.4
2017-May-16 15:59N 40°48' W 073°48'6 0.7
2017-May-16 07:31N 40°53' W 073°44'011.1
2017-May-16 07:29N 40°52' W 073°44'510.5
2017-May-16 07:00N 40°48' W 073°47'510.6
2017-May-16 06:30N 40°48' W 073°54'510.5
2017-May-16 06:00N 40°44' W 073°58'511.0
2017-May-16 05:31N 40°40' W 074°03'  
Track history (hours):
 
Tides and Currents Weather Stations Pressure Air Temp Water Temp Dewpoint Dewpoint Depression Visibility Wind Speed Wind Dir Waves Ship Positions

Kimberly Turecamo

Owner: Moran Towing Corporation, New Canaan, CT. More information available from US FCC via Universal Licensing System and Coast Guard Vessel Documentation Center.

Last reported at 2017-May-26 05:30 UTC. Time now 2017-May-26 05:49 UTC.
Position N 40°38' W 074°08'.

Length 31 m; draft 5 m.

Type: . MMSI: 367061980.

Date/timePositionNaut miles runAvg speedWind from/ knotsBaromVisibWave heightAir tempDewpointWater temp
2017-May-26 05:30N 40°38' W 074°08'0 0.0
2017-May-26 05:00N 40°38' W 074°08'0 0.0
2017-May-26 04:30N 40°38' W 074°08'0 0.0
2017-May-26 04:00N 40°38' W 074°08'0 0.0
2017-May-26 03:30N 40°38' W 074°08'0 0.0
2017-May-26 03:00N 40°38' W 074°08'0 0.0
2017-May-26 02:30N 40°38' W 074°08'0 0.0
2017-May-26 02:00N 40°38' W 074°08'0 0.0
2017-May-26 01:30N 40°38' W 074°08'0 0.0
2017-May-26 00:59N 40°38' W 074°08'0 0.0
2017-May-26 00:30N 40°38' W 074°08'0 0.0
2017-May-26 00:00N 40°38' W 074°08'0 0.0
2017-May-25 23:30N 40°38' W 074°08'0 0.0
2017-May-25 23:00N 40°38' W 074°08'0 0.0
2017-May-25 22:30N 40°38' W 074°08'0 0.0
2017-May-25 22:00N 40°38' W 074°08'0 0.0
2017-May-25 21:30N 40°38' W 074°08'0 0.0
2017-May-25 21:00N 40°38' W 074°08'0 0.0
2017-May-25 20:30N 40°38' W 074°08'0 0.0
2017-May-25 20:00N 40°38' W 074°08'0 0.0
2017-May-25 19:30N 40°38' W 074°08'0 0.0
2017-May-25 19:00N 40°38' W 074°08'0 0.0
2017-May-25 18:30N 40°38' W 074°08'0 0.0
2017-May-25 18:00N 40°38' W 074°08'0 0.0
2017-May-25 17:30N 40°38' W 074°08'0 0.0
2017-May-25 17:00N 40°38' W 074°08'0 0.0
2017-May-25 16:30N 40°38' W 074°08'0 0.0
2017-May-25 15:59N 40°38' W 074°08'0 0.0
2017-May-25 15:30N 40°38' W 074°08'0 0.0
2017-May-25 15:00N 40°38' W 074°08'0 0.0
2017-May-25 14:00N 40°38' W 074°08'0 0.0
2017-May-25 13:30N 40°38' W 074°08'0 0.0
2017-May-25 13:00N 40°38' W 074°08'0 0.0
2017-May-25 12:30N 40°38' W 074°08'0 0.0
2017-May-25 12:00N 40°38' W 074°08'0 0.0
2017-May-25 11:30N 40°38' W 074°08'0 0.0
2017-May-25 11:00N 40°38' W 074°08'0 0.0
2017-May-25 10:30N 40°38' W 074°08'0 0.0
2017-May-25 10:00N 40°38' W 074°08'0 0.0
2017-May-25 09:30N 40°38' W 074°08'0 0.0
2017-May-25 09:00N 40°38' W 074°08'0 0.0
2017-May-25 08:30N 40°38' W 074°08'0 0.0
2017-May-25 08:00N 40°38' W 074°08'0 0.0
2017-May-25 07:30N 40°38' W 074°08'0 0.0
2017-May-25 07:00N 40°38' W 074°08'0 0.0
2017-May-25 06:30N 40°38' W 074°08'0 0.0
2017-May-25 06:00N 40°38' W 074°08'0 0.0
2017-May-25 05:30N 40°38' W 074°08'0 0.0
2017-May-25 05:00N 40°38' W 074°08'1 2.1
2017-May-25 04:30N 40°39' W 074°06'3 7.0
2017-May-25 04:00N 40°40' W 074°02'1 1.1
2017-May-25 03:30N 40°40' W 074°03'5 9.7
2017-May-25 03:00N 40°38' W 074°09'2 4.7
2017-May-25 02:29N 40°38' W 074°12'2 3.4
2017-May-25 02:00N 40°39' W 074°10'2 4.0
2017-May-25 01:30N 40°38' W 074°08'0 0.0
2017-May-25 00:57N 40°38' W 074°08'0 0.0
2017-May-25 00:30N 40°38' W 074°08'0 0.0
2017-May-24 23:57N 40°38' W 074°08'0 0.0
2017-May-24 23:27N 40°38' W 074°08'0 0.0
2017-May-24 23:00N 40°38' W 074°08'0 0.0
2017-May-24 22:30N 40°38' W 074°08'0 0.0
2017-May-24 21:57N 40°38' W 074°08'0 0.0
2017-May-24 21:24N 40°38' W 074°08'0 0.0
2017-May-24 20:54N 40°38' W 074°08'0 0.0
2017-May-24 20:27N 40°38' W 074°08'0 0.0
2017-May-24 19:45N 40°38' W 074°08'0 0.0
2017-May-24 19:24N 40°38' W 074°08'0 0.0
2017-May-24 18:57N 40°38' W 074°08'0 0.0
2017-May-24 18:30N 40°38' W 074°08'0 0.0
2017-May-24 17:57N 40°38' W 074°08'0 0.0
2017-May-24 17:30N 40°38' W 074°08'0 0.0
2017-May-24 16:57N 40°38' W 074°08'0 0.0
2017-May-24 16:27N 40°38' W 074°08'0 0.0
2017-May-24 16:00N 40°38' W 074°08'0 0.1
2017-May-24 15:30N 40°38' W 074°08'0 0.0
2017-May-24 15:00N 40°38' W 074°08'0 0.0
2017-May-24 14:30N 40°38' W 074°08'0 0.0
2017-May-24 13:24N 40°38' W 074°08'2 4.7
2017-May-24 13:00N 40°39' W 074°10'2 3.3
2017-May-24 12:30N 40°38' W 074°12'0 0.0
2017-May-24 12:00N 40°38' W 074°12'2 3.4
2017-May-24 11:30N 40°39' W 074°10'4 7.4
2017-May-24 11:00N 40°39' W 074°05'2 4.2
2017-May-24 10:30N 40°38' W 074°03'1 1.6
2017-May-24 10:00N 40°37' W 074°03'0 0.0
2017-May-24 09:30N 40°37' W 074°03'0 0.0
2017-May-24 09:00N 40°37' W 074°03'0 0.0
2017-May-24 08:30N 40°37' W 074°03'0 0.3
2017-May-24 08:00N 40°37' W 074°03'0 0.2
2017-May-24 07:30N 40°37' W 074°03'0 0.1
2017-May-24 07:00N 40°37' W 074°03'0 0.1
2017-May-24 06:30N 40°37' W 074°03'0 0.1
2017-May-24 06:00N 40°37' W 074°03'0 0.1
2017-May-24 05:30N 40°37' W 074°03'0 0.1
2017-May-24 05:00N 40°37' W 074°03'0 0.1
2017-May-24 04:30N 40°37' W 074°03'0 0.1
2017-May-24 03:57N 40°37' W 074°03'0 0.0
2017-May-24 03:30N 40°37' W 074°03'0 0.0
2017-May-24 02:59N 40°37' W 074°03'0 0.0
2017-May-24 02:29N 40°37' W 074°03'0 0.0
2017-May-24 01:50N 40°37' W 074°03'0 0.1
2017-May-24 01:29N 40°37' W 074°03'0 0.4
2017-May-24 00:59N 40°37' W 074°03'0 0.1
2017-May-24 00:29N 40°37' W 074°03'0 0.0
2017-May-23 23:59N 40°37' W 074°03'0 0.0
2017-May-23 23:29N 40°37' W 074°03'0 0.0
2017-May-23 22:59N 40°37' W 074°03'0 0.0
2017-May-23 22:30N 40°37' W 074°03'0 0.9
2017-May-23 22:01N 40°37' W 074°04'3 6.2
2017-May-23 21:31N 40°40' W 074°02'0 0.1
2017-May-23 21:01N 40°40' W 074°02'0 0.1
2017-May-23 20:31N 40°40' W 074°02'5 9.2
2017-May-23 20:00N 40°38' W 074°08'0 0.0
2017-May-23 19:30N 40°38' W 074°08'0 0.0
2017-May-23 19:01N 40°38' W 074°08'0 0.0
2017-May-23 18:31N 40°38' W 074°08'0 0.0
2017-May-23 18:01N 40°38' W 074°08'0 0.0
2017-May-23 17:30N 40°38' W 074°08'0 0.0
2017-May-23 17:00N 40°38' W 074°08'0 0.0
2017-May-23 16:30N 40°38' W 074°08'0 0.0
2017-May-23 16:01N 40°38' W 074°08'0 0.0
2017-May-23 15:30N 40°38' W 074°08'0 0.0
2017-May-23 15:01N 40°38' W 074°08'0 0.0
2017-May-23 14:30N 40°38' W 074°08'0 0.0
2017-May-23 13:30N 40°38' W 074°08'0 0.0
2017-May-23 13:01N 40°38' W 074°08'0 0.0
2017-May-23 12:31N 40°38' W 074°08'0 0.0
2017-May-23 12:00N 40°38' W 074°08'0 0.0
2017-May-23 11:30N 40°38' W 074°08'0 0.0
2017-May-23 11:00N 40°38' W 074°08'0 0.0
2017-May-23 10:31N 40°38' W 074°08'2 4.8
2017-May-23 10:00N 40°39' W 074°11'1 2.7
2017-May-23 09:30N 40°38' W 074°12'3 7.0
2017-May-23 09:00N 40°38' W 074°08'0 0.0
2017-May-23 08:31N 40°38' W 074°08'0 0.0
2017-May-23 08:00N 40°38' W 074°08'0 0.0
2017-May-23 07:30N 40°38' W 074°08'0 0.0
2017-May-23 07:00N 40°38' W 074°08'0 0.0
2017-May-23 06:31N 40°38' W 074°08'0 0.0
2017-May-23 06:00N 40°38' W 074°08'0 0.0
2017-May-23 05:30N 40°38' W 074°08'0 0.0
2017-May-23 05:01N 40°38' W 074°08'0 0.0
2017-May-23 04:30N 40°38' W 074°08'0 0.0
2017-May-23 04:00N 40°38' W 074°08'0 0.0
2017-May-23 03:30N 40°38' W 074°08'0 0.0
2017-May-23 03:01N 40°38' W 074°08'0 0.0
2017-May-23 02:30N 40°38' W 074°08'2 4.7
2017-May-23 02:01N 40°41' W 074°09'0 0.9
2017-May-23 01:31N 40°41' W 074°08'2 3.4
2017-May-23 01:00N 40°39' W 074°09'2 4.0
2017-May-23 00:30N 40°39' W 074°06'3 5.3
2017-May-23 00:01N 40°40' W 074°03'1 2.7
2017-May-22 23:31N 40°41' W 074°04'0 0.6
2017-May-22 23:00N 40°41' W 074°04'4 6.7
2017-May-22 22:29N 40°39' W 074°08'0 0.3
2017-May-22 21:58N 40°38' W 074°08'0 0.0
2017-May-22 21:28N 40°38' W 074°08'0 0.0
2017-May-22 20:55N 40°38' W 074°08'0 0.0
2017-May-22 20:16N 40°38' W 074°08'0 0.0
2017-May-22 18:58N 40°38' W 074°08'0 0.0
2017-May-22 16:13N 40°38' W 074°08'1 1.3
2017-May-22 15:12N 40°39' W 074°06'0 0.2
2017-May-22 15:00N 40°39' W 074°06'1 1.2
2017-May-22 13:54N 40°38' W 074°08'0 0.0
2017-May-22 13:30N 40°38' W 074°08'0 0.0
2017-May-22 12:57N 40°38' W 074°08'0 0.0
2017-May-22 12:30N 40°38' W 074°08'4 8.9
2017-May-22 12:00N 40°40' W 074°02'2 3.2
2017-May-22 11:30N 40°41' W 074°01'2 3.5
2017-May-22 11:00N 40°40' W 074°03'4 8.5
2017-May-22 10:30N 40°38' W 074°08'0 0.0
2017-May-22 10:00N 40°38' W 074°08'0 0.0
2017-May-22 09:30N 40°38' W 074°08'0 0.0
2017-May-22 09:00N 40°38' W 074°08'0 0.0
2017-May-22 08:30N 40°38' W 074°08'0 0.0
2017-May-22 08:00N 40°38' W 074°08'0 0.0
2017-May-22 07:30N 40°38' W 074°08'0 0.0
2017-May-22 07:00N 40°38' W 074°08'0 0.0
2017-May-22 06:30N 40°38' W 074°08'0 0.0
2017-May-22 06:00N 40°38' W 074°08'0 0.0
2017-May-22 05:30N 40°38' W 074°08'0 0.0
2017-May-22 05:00N 40°38' W 074°08'0 0.0
2017-May-22 04:30N 40°38' W 074°08'0 0.0
2017-May-22 04:00N 40°38' W 074°08'0 0.0
2017-May-22 03:30N 40°38' W 074°08'0 0.0
2017-May-22 03:00N 40°38' W 074°08'0 0.0
2017-May-22 02:30N 40°38' W 074°08'0 0.0
2017-May-22 02:00N 40°38' W 074°08'0 0.0
2017-May-22 01:30N 40°38' W 074°08'0 0.0
2017-May-22 01:00N 40°38' W 074°08'0 0.0
2017-May-22 00:30N 40°38' W 074°08'0 0.0
2017-May-22 00:00N 40°38' W 074°08'0 0.0
2017-May-21 23:30N 40°38' W 074°08'0 0.0
2017-May-21 23:00N 40°38' W 074°08'0 0.0
2017-May-21 22:30N 40°38' W 074°08'0 0.0
2017-May-21 22:00N 40°38' W 074°08'0 0.0
2017-May-21 21:30N 40°38' W 074°08'0 0.0
2017-May-21 21:00N 40°38' W 074°08'0 0.0
2017-May-21 20:30N 40°38' W 074°08'0 0.0
2017-May-21 20:00N 40°38' W 074°08'0 0.0
2017-May-21 19:30N 40°38' W 074°08'0 0.0
2017-May-21 19:00N 40°38' W 074°08'0 0.0
2017-May-21 18:30N 40°38' W 074°08'0 0.0
2017-May-21 18:00N 40°38' W 074°08'0 0.0
2017-May-21 17:30N 40°38' W 074°08'0 0.0
2017-May-21 17:00N 40°38' W 074°08'0 0.0
2017-May-21 16:30N 40°38' W 074°08'0 0.0
2017-May-21 16:00N 40°38' W 074°08'0 0.0
2017-May-21 15:30N 40°38' W 074°08'0 0.0
2017-May-21 15:00N 40°38' W 074°08'0 0.0
2017-May-21 14:00N 40°38' W 074°08'0 0.0
2017-May-21 13:30N 40°38' W 074°08'0 0.0
2017-May-21 13:00N 40°38' W 074°08'0 0.0
2017-May-21 12:30N 40°38' W 074°08'0 0.0
2017-May-21 12:00N 40°38' W 074°08'0 0.0
2017-May-21 11:30N 40°38' W 074°08'0 0.0
2017-May-21 11:00N 40°38' W 074°08'0 0.0
2017-May-21 10:30N 40°38' W 074°08'0 0.0
2017-May-21 10:00N 40°38' W 074°08'0 0.0
2017-May-21 09:30N 40°38' W 074°08'0 0.0
2017-May-21 09:00N 40°38' W 074°08'0 0.0
2017-May-21 08:30N 40°38' W 074°08'0 0.0
2017-May-21 08:00N 40°38' W 074°08'0 0.0
2017-May-21 07:30N 40°38' W 074°08'0 0.0
2017-May-21 07:00N 40°38' W 074°08'0 0.0
2017-May-21 06:30N 40°38' W 074°08'0 0.0
2017-May-21 06:00N 40°38' W 074°08'0 0.0
2017-May-21 05:30N 40°38' W 074°08'0 0.0
2017-May-21 05:00N 40°38' W 074°08'0 0.0
2017-May-21 04:30N 40°38' W 074°08'0 0.0
2017-May-21 04:00N 40°38' W 074°08'0 0.0
2017-May-21 03:30N 40°38' W 074°08'0 0.0
2017-May-21 03:00N 40°38' W 074°08'0 0.0
2017-May-21 02:30N 40°38' W 074°08'0 0.0
2017-May-21 02:00N 40°38' W 074°08'0 0.0
2017-May-21 01:30N 40°38' W 074°08'0 0.0
2017-May-21 01:00N 40°38' W 074°08'0 0.0
2017-May-21 00:30N 40°38' W 074°08'0 0.0
2017-May-21 00:00N 40°38' W 074°08'0 0.0
2017-May-20 23:30N 40°38' W 074°08'0 0.0
2017-May-20 23:00N 40°38' W 074°08'0 0.0
2017-May-20 22:30N 40°38' W 074°08'0 0.0
2017-May-20 22:00N 40°38' W 074°08'0 0.0
2017-May-20 21:30N 40°38' W 074°08'1 2.8
2017-May-20 21:00N 40°39' W 074°06'3 6.6
2017-May-20 20:30N 40°40' W 074°02'3 5.5
2017-May-20 20:00N 40°39' W 074°05'0 0.3
2017-May-20 19:30N 40°39' W 074°06'1 2.4
2017-May-20 19:00N 40°39' W 074°07'1 1.2
2017-May-20 18:30N 40°38' W 074°08'0 0.0
2017-May-20 18:00N 40°38' W 074°08'0 0.0
2017-May-20 17:29N 40°38' W 074°08'0 0.0
2017-May-20 17:00N 40°38' W 074°08'0 0.0
2017-May-20 16:30N 40°38' W 074°08'0 0.0
2017-May-20 15:51N 40°38' W 074°08'0 0.0
2017-May-20 15:30N 40°38' W 074°08'0 0.0
2017-May-20 14:58N 40°38' W 074°08'0 0.0
2017-May-20 13:44N 40°38' W 074°08'0 0.0
2017-May-20 13:22N 40°38' W 074°08'0 0.0
2017-May-20 12:59N 40°38' W 074°08'0 0.0
2017-May-20 12:09N 40°38' W 074°08'0 0.0
2017-May-20 11:57N 40°38' W 074°08'0 0.0
2017-May-20 11:20N 40°38' W 074°08'0 0.0
2017-May-20 10:59N 40°38' W 074°08'0 0.0
2017-May-20 10:30N 40°38' W 074°08'0 0.0
2017-May-20 09:40N 40°38' W 074°08'0 0.0
2017-May-20 09:29N 40°38' W 074°08'0 0.0
2017-May-20 08:55N 40°38' W 074°08'0 0.0
2017-May-20 08:30N 40°38' W 074°08'0 0.0
2017-May-20 08:00N 40°38' W 074°08'0 0.0
2017-May-20 07:30N 40°38' W 074°08'0 0.0
2017-May-20 07:00N 40°38' W 074°08'0 0.0
2017-May-20 06:30N 40°38' W 074°08'0 0.0
2017-May-20 06:00N 40°38' W 074°08'0 0.0
2017-May-20 05:30N 40°38' W 074°08'0 0.0
2017-May-20 03:04N 40°38' W 074°08'0 0.2
2017-May-20 03:00N 40°38' W 074°08'2 3.8
2017-May-20 02:30N 40°39' W 074°05'0 0.0
2017-May-20 02:00N 40°39' W 074°05'2 4.0
2017-May-20 01:30N 40°38' W 074°03'2 4.9
2017-May-20 01:00N 40°36' W 074°02'0 0.4
2017-May-20 00:30N 40°36' W 074°02'3 5.4
2017-May-20 00:00N 40°33' W 074°01'34 5.8
2017-May-19 18:13N 39°60' W 073°56'2 7.0
2017-May-19 17:58N 39°58' W 073°56'3 7.0
2017-May-19 17:30N 39°55' W 073°57'4 7.1
2017-May-19 17:00N 39°51' W 073°57'4 7.1
2017-May-19 16:29N 39°47' W 073°58'3 7.1
2017-May-19 16:00N 39°44' W 073°59'3 6.9
2017-May-19 15:30N 39°41' W 073°59'3 6.1
2017-May-19 15:00N 39°38' W 074°00'7 6.6
2017-May-19 14:00N 39°32' W 074°05'3 6.7
2017-May-19 13:30N 39°29' W 074°08'11 6.8
2017-May-19 11:57N 39°21' W 074°16'17 6.8
2017-May-19 09:30N 39°08' W 074°30'4 6.9
2017-May-19 08:56N 39°05' W 074°33'4 6.7
2017-May-19 08:20N 39°03' W 074°37'23 6.0
2017-May-19 04:29N 38°49' W 075°00'9 5.6
2017-May-19 02:55N 38°56' W 075°06'2 4.6
2017-May-19 02:26N 38°58' W 075°08'0 0.6
2017-May-19 02:00N 38°58' W 075°08'4 7.4
2017-May-19 01:28N 39°02' W 075°09'4 8.0
2017-May-19 01:00N 39°05' W 075°11'4 8.3
2017-May-19 00:30N 39°09' W 075°14'4 8.4
2017-May-19 00:00N 39°12' W 075°17'5 8.4
2017-May-18 23:23N 39°16' W 075°21'3 8.3
2017-May-18 23:00N 39°19' W 075°24'4 7.8
2017-May-18 22:30N 39°22' W 075°27'3 6.8
2017-May-18 22:00N 39°24' W 075°30'3 6.5
2017-May-18 21:30N 39°27' W 075°33'3 5.7
2017-May-18 21:00N 39°30' W 075°34'3 5.7
2017-May-18 20:30N 39°32' W 075°33'3 5.5
2017-May-18 20:00N 39°35' W 075°34'3 5.2
2017-May-18 19:30N 39°37' W 075°35'3 5.7
2017-May-18 19:00N 39°40' W 075°32'3 6.5
2017-May-18 18:30N 39°43' W 075°31'4 7.4
2017-May-18 18:00N 39°46' W 075°29'4 8.1
2017-May-18 17:30N 39°49' W 075°24'4 8.9
2017-May-18 17:00N 39°51' W 075°20'4 8.7
2017-May-18 16:30N 39°52' W 075°14'3 4.9
2017-May-18 15:59N 39°54' W 075°12'0 0.0
2017-May-18 15:29N 39°54' W 075°12'0 0.0
2017-May-18 14:59N 39°54' W 075°12'1 1.3
2017-May-18 13:59N 39°53' W 075°11'0 0.0
2017-May-18 13:29N 39°53' W 075°11'0 0.0
2017-May-18 12:59N 39°53' W 075°11'0 0.0
2017-May-18 12:29N 39°53' W 075°11'0 0.0
2017-May-18 11:59N 39°53' W 075°11'0 0.0
2017-May-18 11:29N 39°53' W 075°11'0 0.0
2017-May-18 10:59N 39°53' W 075°11'0 0.0
2017-May-18 10:29N 39°53' W 075°11'0 0.0
2017-May-18 09:59N 39°53' W 075°11'0 0.0
2017-May-18 09:29N 39°53' W 075°11'0 0.0
2017-May-18 08:59N 39°53' W 075°11'0 0.0
2017-May-18 08:29N 39°53' W 075°11'0 0.0
2017-May-18 07:53N 39°53' W 075°11'0 0.0
2017-May-18 07:29N 39°53' W 075°11'0 0.0
2017-May-18 06:59N 39°53' W 075°11'0 0.0
2017-May-18 06:29N 39°53' W 075°11'0 0.0
2017-May-18 05:59N 39°53' W 075°11'0 0.0
2017-May-18 05:29N 39°53' W 075°11'0 0.0
2017-May-18 04:59N 39°53' W 075°11'0 0.0
2017-May-18 04:29N 39°53' W 075°11'0 0.0
2017-May-18 03:59N 39°53' W 075°11'0 0.0
2017-May-18 03:29N 39°53' W 075°11'0 0.0
2017-May-18 02:59N 39°53' W 075°11'0 0.0
2017-May-18 02:30N 39°53' W 075°11'0 0.0
2017-May-18 02:00N 39°53' W 075°11'0 0.0
2017-May-18 01:30N 39°53' W 075°11'0 0.0
2017-May-18 01:00N 39°53' W 075°11'0 0.0
2017-May-18 00:30N 39°53' W 075°11'0 0.0
2017-May-18 00:00N 39°53' W 075°11'0 0.0
2017-May-17 23:30N 39°53' W 075°11'0 0.0
2017-May-17 23:00N 39°53' W 075°11'0 0.0
2017-May-17 22:30N 39°53' W 075°11'0 0.0
2017-May-17 22:00N 39°53' W 075°11'0 0.0
2017-May-17 21:30N 39°53' W 075°11'0 0.0
2017-May-17 21:00N 39°53' W 075°11'1 2.3
2017-May-17 20:30N 39°54' W 075°12'0 0.2
2017-May-17 20:00N 39°54' W 075°12'2 4.2
2017-May-17 19:30N 39°52' W 075°13'3 6.1
2017-May-17 19:00N 39°51' W 075°17'510.0
2017-May-17 18:30N 39°49' W 075°23'5 9.4
2017-May-17 18:00N 39°46' W 075°28'5 9.3
2017-May-17 17:30N 39°42' W 075°31'4 8.9
2017-May-17 17:00N 39°38' W 075°34'4 8.1
2017-May-17 16:30N 39°34' W 075°33'4 8.2
2017-May-17 16:00N 39°30' W 075°33'4 7.0
2017-May-17 15:30N 39°27' W 075°33'4 7.6
2017-May-17 15:00N 39°24' W 075°30'4 7.2
2017-May-17 14:30N 39°21' W 075°27'7 7.2
2017-May-17 13:30N 39°16' W 075°20'4 7.5
2017-May-17 13:00N 39°13' W 075°17'4 7.2
2017-May-17 12:30N 39°10' W 075°15'4 7.9
2017-May-17 12:00N 39°06' W 075°12'4 7.8
2017-May-17 11:30N 39°03' W 075°10'4 7.9
2017-May-17 11:00N 38°59' W 075°08'4 7.7
2017-May-17 10:30N 38°56' W 075°06'4 7.4
2017-May-17 10:00N 38°53' W 075°04'4 7.5
2017-May-17 09:30N 38°49' W 075°02'4 7.4
2017-May-17 09:00N 38°48' W 074°57'4 8.3
2017-May-17 08:30N 38°50' W 074°52'10 8.4
2017-May-17 07:19N 38°57' W 074°43'3 8.7
2017-May-17 07:00N 38°59' W 074°41'4 8.8
2017-May-17 06:31N 39°02' W 074°37'5 9.0
2017-May-17 06:00N 39°05' W 074°33'4 9.0
2017-May-17 05:30N 39°09' W 074°29'5 9.1
2017-May-17 05:00N 39°12' W 074°26'5 9.1
2017-May-17 04:30N 39°16' W 074°22'4 8.8
2017-May-17 04:00N 39°19' W 074°18'5 9.2
2017-May-17 03:30N 39°22' W 074°14'5 9.2
2017-May-17 03:00N 39°26' W 074°11'5 9.2
2017-May-17 02:30N 39°30' W 074°08'5 9.0
2017-May-17 01:59N 39°35' W 074°05'4 8.7
2017-May-17 01:30N 39°38' W 074°03'4 8.6
2017-May-17 01:00N 39°42' W 074°00'4 8.5
2017-May-17 00:29N 39°46' W 073°58'5 8.8
2017-May-16 23:58N 39°51' W 073°58'38 9.1
2017-May-16 19:45N 40°29' W 073°55'310.6
2017-May-16 19:30N 40°30' W 073°58'5 9.5
2017-May-16 19:00N 40°34' W 074°02'4 8.0
2017-May-16 18:30N 40°38' W 074°03'4 7.9
2017-May-16 18:00N 40°41' W 074°01'3 6.8
2017-May-16 17:30N 40°44' W 073°58'3 6.0
2017-May-16 16:59N 40°47' W 073°56'3 5.7
2017-May-16 16:30N 40°48' W 073°53'4 7.4
2017-May-16 15:59N 40°48' W 073°48'6 0.7
2017-May-16 07:31N 40°53' W 073°44'011.1
2017-May-16 07:29N 40°52' W 073°44'510.5
2017-May-16 07:00N 40°48' W 073°47'510.6
2017-May-16 06:30N 40°48' W 073°54'510.5
2017-May-16 06:00N 40°44' W 073°58'511.0
2017-May-16 05:31N 40°40' W 074°03'  

Dump ship's entire track history